createdAt,value
2022-10-31T00:01:34.151Z,19.90
2022-10-31T00:04:01.666Z,18.47
2022-10-31T00:06:29.230Z,19.17
2022-10-31T00:08:59.256Z,19.10
2022-10-31T00:11:27.297Z,19.80
2022-10-31T00:13:54.716Z,19.20
2022-10-31T00:16:24.817Z,19.17
2022-10-31T00:18:57.617Z,20.67
2022-10-31T00:21:25.443Z,19.67
2022-10-31T00:23:52.859Z,18.70
2022-10-31T00:26:21.048Z,20.07
2022-10-31T00:28:48.682Z,19.20
2022-10-31T00:31:16.133Z,18.43
2022-10-31T00:33:43.843Z,18.80
2022-10-31T00:36:17.922Z,18.67
2022-10-31T00:38:46.779Z,18.03
2022-10-31T00:41:16.878Z,19.47
2022-10-31T00:43:45.028Z,18.57
2022-10-31T00:46:13.865Z,18.10
2022-10-31T00:48:42.449Z,18.67
2022-10-31T00:51:10.611Z,19.07
2022-10-31T00:53:37.983Z,18.73
2022-10-31T00:56:06.319Z,18.57
2022-10-31T00:58:33.800Z,18.23
2022-10-31T01:01:01.259Z,19.37
2022-10-31T01:03:31.525Z,19.10
2022-10-31T01:06:05.042Z,19.20
2022-10-31T01:08:34.589Z,18.53
2022-10-31T01:11:15.344Z,19.53
2022-10-31T01:13:43.078Z,18.23
2022-10-31T01:16:14.109Z,18.70
2022-10-31T01:18:41.990Z,17.97
2022-10-31T01:21:13.638Z,18.00
2022-10-31T01:23:41.495Z,18.30
2022-10-31T01:26:15.091Z,18.47
2022-10-31T01:28:56.138Z,19.20
2022-10-31T01:31:29.024Z,17.73
2022-10-31T01:33:57.255Z,18.20
2022-10-31T01:36:30.324Z,18.20
2022-10-31T01:39:00.251Z,18.50
2022-10-31T01:41:33.658Z,18.93
2022-10-31T01:44:04.578Z,19.23
2022-10-31T01:46:41.998Z,18.73
2022-10-31T01:49:33.559Z,17.93
2022-10-31T01:52:22.179Z,18.27
2022-10-31T01:55:01.802Z,18.17
2022-10-31T01:57:32.783Z,17.63
2022-10-31T02:00:05.732Z,18.30
2022-10-31T02:02:53.510Z,17.63
2022-10-31T02:05:25.557Z,18.47
2022-10-31T02:08:17.699Z,18.30
2022-10-31T02:10:45.824Z,17.73
2022-10-31T02:13:14.009Z,16.90
2022-10-31T02:15:52.320Z,17.47
2022-10-31T02:18:21.357Z,17.30
2022-10-31T02:21:05.274Z,18.63
2022-10-31T02:24:24.760Z,18.20
2022-10-31T02:27:26.968Z,18.20
2022-10-31T02:30:12.878Z,17.73
2022-10-31T02:33:04.043Z,17.57
2022-10-31T02:35:50.916Z,16.20
2022-10-31T02:38:45.334Z,16.40
2022-10-31T02:41:36.006Z,17.63
2022-10-31T02:44:29.990Z,17.67
2022-10-31T02:47:10.465Z,18.33
2022-10-31T02:49:41.234Z,18.20
2022-10-31T02:52:30.404Z,17.00
2022-10-31T02:55:35.546Z,17.73
2022-10-31T02:58:11.835Z,17.00
2022-10-31T03:01:07.557Z,16.97
2022-10-31T03:03:51.863Z,17.07
2022-10-31T03:06:33.412Z,16.60
2022-10-31T03:09:03.808Z,16.90
2022-10-31T03:11:41.181Z,16.60
2022-10-31T03:14:38.838Z,16.57
2022-10-31T03:17:10.555Z,17.50
2022-10-31T03:19:43.295Z,16.67
2022-10-31T03:22:18.746Z,16.10
2022-10-31T03:24:48.239Z,17.10
2022-10-31T03:27:18.144Z,16.23
2022-10-31T03:29:48.320Z,17.13
2022-10-31T03:32:26.575Z,16.20
2022-10-31T03:34:57.435Z,16.33
2022-10-31T03:37:28.323Z,15.67
2022-10-31T03:39:59.468Z,15.87
2022-10-31T03:42:31.133Z,15.53
2022-10-31T03:45:01.478Z,16.40
2022-10-31T03:47:29.352Z,16.17
2022-10-31T03:49:57.579Z,15.30
2022-10-31T03:52:57.011Z,16.03
2022-10-31T03:55:42.967Z,15.20
2022-10-31T04:00:51.637Z,15.40
2022-10-31T04:03:28.199Z,16.43
2022-10-31T04:06:03.034Z,15.70
2022-10-31T04:08:34.051Z,16.67
2022-10-31T04:11:04.306Z,15.73
2022-10-31T04:13:36.752Z,15.43
2022-10-31T04:16:15.986Z,15.90
2022-10-31T04:18:45.112Z,15.90
2022-10-31T04:21:12.405Z,14.20
2022-10-31T04:23:39.829Z,14.33
2022-10-31T04:26:22.363Z,15.87
2022-10-31T04:28:49.710Z,15.73
2022-10-31T04:31:17.420Z,16.10
2022-10-31T04:33:46.757Z,14.83
2022-10-31T04:36:14.246Z,14.90
2022-10-31T04:38:42.934Z,15.53
2022-10-31T04:41:22.848Z,15.03
2022-10-31T04:43:59.126Z,15.10
2022-10-31T04:46:28.405Z,15.30
2022-10-31T04:48:58.073Z,14.60
2022-10-31T04:51:25.593Z,14.73
2022-10-31T04:53:53.422Z,13.60
2022-10-31T04:56:39.372Z,14.27
2022-10-31T04:59:13.062Z,14.37
2022-10-31T05:01:53.289Z,14.10
2022-10-31T05:04:34.366Z,14.00
2022-10-31T05:07:01.892Z,15.13
2022-10-31T05:09:29.248Z,13.97
2022-10-31T05:11:56.635Z,15.10
2022-10-31T05:14:47.630Z,13.97
2022-10-31T05:17:34.435Z,12.90
2022-10-31T05:20:27.954Z,12.97
2022-10-31T05:23:13.010Z,13.23
2022-10-31T05:25:42.825Z,13.23
2022-10-31T05:28:10.257Z,12.93
2022-10-31T05:30:38.344Z,13.40
2022-10-31T05:33:08.415Z,13.13
2022-10-31T05:35:56.075Z,12.87
2022-10-31T05:38:39.653Z,12.23
2022-10-31T05:41:17.398Z,13.17
2022-10-31T05:43:47.761Z,12.23
2022-10-31T05:46:17.145Z,12.07
2022-10-31T05:49:07.367Z,12.80
2022-10-31T05:52:00.592Z,12.77
2022-10-31T05:54:37.280Z,13.00
2022-10-31T05:57:04.725Z,12.40
2022-10-31T05:59:32.110Z,13.00
2022-10-31T06:01:59.632Z,13.23
2022-10-31T06:04:47.072Z,12.57
2022-10-31T06:07:14.554Z,13.30
2022-10-31T06:09:42.014Z,13.27
2022-10-31T06:12:09.437Z,14.00
2022-10-31T06:14:55.470Z,13.03
2022-10-31T06:17:22.803Z,13.20
2022-10-31T06:22:26.238Z,14.50
2022-10-31T06:24:53.722Z,15.97
2022-10-31T06:27:29.527Z,15.17
2022-10-31T06:29:58.638Z,15.07
2022-10-31T06:32:33.660Z,14.50
2022-10-31T06:35:01.065Z,14.30
2022-10-31T06:37:28.328Z,12.93
2022-10-31T06:40:04.700Z,46.70
2022-10-31T06:42:41.280Z,13.93
2022-10-31T06:45:10.502Z,12.67
2022-10-31T06:51:04.054Z,12.47
2022-10-31T06:53:32.709Z,12.27
2022-10-31T06:56:01.160Z,12.60
2022-10-31T06:58:28.533Z,12.43
2022-10-31T07:01:01.632Z,13.63
2022-10-31T07:03:29.292Z,13.33
2022-10-31T07:05:58.140Z,12.07
2022-10-31T07:08:27.466Z,12.70
2022-10-31T07:10:57.601Z,12.67
2022-10-31T07:13:28.771Z,12.93
2022-10-31T07:16:07.860Z,10.67
2022-10-31T07:18:37.192Z,11.03
2022-10-31T07:21:05.301Z,12.30
2022-10-31T07:23:33.185Z,11.30
2022-10-31T07:26:20.490Z,27.83
2022-10-31T07:28:49.207Z,31.30
2022-10-31T07:31:19.712Z,18.27
2022-10-31T07:33:47.151Z,11.40
2022-10-31T07:36:29.719Z,11.83
2022-10-31T07:39:03.256Z,11.20
2022-10-31T07:41:32.374Z,10.43
2022-10-31T07:43:59.923Z,10.77
2022-10-31T07:46:47.184Z,10.67
2022-10-31T07:49:25.873Z,10.80
2022-10-31T07:52:11.897Z,10.77
2022-10-31T07:54:57.830Z,11.43
2022-10-31T07:57:25.911Z,11.70
2022-10-31T07:59:54.249Z,11.00
2022-10-31T08:02:21.618Z,11.27
2022-10-31T08:04:49.072Z,10.23
2022-10-31T08:07:45.557Z,10.30
2022-10-31T08:10:19.415Z,10.00
2022-10-31T08:12:47.288Z,10.23
2022-10-31T08:15:15.244Z,10.33
2022-10-31T08:17:42.628Z,9.93
2022-10-31T08:20:11.982Z,10.57
2022-10-31T08:23:04.748Z,10.23
2022-10-31T08:25:38.653Z,10.20
2022-10-31T08:28:07.809Z,9.63
2022-10-31T08:30:38.320Z,10.60
2022-10-31T08:33:26.195Z,9.57
2022-10-31T08:36:16.541Z,9.93
2022-10-31T08:39:02.152Z,9.63
2022-10-31T08:41:31.412Z,8.77
2022-10-31T08:44:00.340Z,9.10
2022-10-31T08:46:27.672Z,9.10
2022-10-31T08:48:55.017Z,8.30
2022-10-31T08:51:23.792Z,8.60
2022-10-31T08:53:54.441Z,8.87
2022-10-31T08:56:56.475Z,8.83
2022-10-31T08:59:42.590Z,9.07
2022-10-31T09:02:33.045Z,8.80
2022-10-31T09:05:01.616Z,9.30
2022-10-31T09:07:30.403Z,9.10
2022-10-31T09:09:59.283Z,8.97
2022-10-31T09:12:27.271Z,8.07
2022-10-31T09:15:10.306Z,8.03
2022-10-31T09:17:56.248Z,7.67
2022-10-31T09:20:38.592Z,7.90
2022-10-31T09:23:13.181Z,7.50
2022-10-31T09:25:46.165Z,7.87
2022-10-31T09:28:34.964Z,8.77
2022-10-31T09:31:07.732Z,8.70
2022-10-31T09:33:55.811Z,6.70
2022-10-31T09:36:39.431Z,7.53
2022-10-31T09:39:20.381Z,7.80
2022-10-31T09:42:00.338Z,6.87
2022-10-31T09:45:34.118Z,7.27
2022-10-31T09:48:26.127Z,6.70
2022-10-31T09:51:26.897Z,6.77
2022-10-31T09:54:18.513Z,6.60
2022-10-31T09:56:46.436Z,6.40
2022-10-31T09:59:31.326Z,5.50
2022-10-31T10:02:03.778Z,6.00
2022-10-31T10:04:44.578Z,6.00
2022-10-31T10:07:35.432Z,5.53
2022-10-31T10:10:52.066Z,5.07
2022-10-31T10:14:01.177Z,4.90
2022-10-31T10:16:48.311Z,4.90
2022-10-31T10:19:31.560Z,5.10
2022-10-31T10:21:58.906Z,5.00
2022-10-31T10:24:46.445Z,5.53
2022-10-31T10:27:41.450Z,4.80
2022-10-31T10:30:21.825Z,4.80
2022-10-31T10:33:00.396Z,5.73
2022-10-31T10:35:33.843Z,5.00
2022-10-31T10:38:11.258Z,5.40
2022-10-31T10:40:39.183Z,5.30
2022-10-31T10:43:24.931Z,5.13
2022-10-31T10:46:29.716Z,5.33
2022-10-31T10:49:20.138Z,4.87
2022-10-31T10:52:43.180Z,5.07
2022-10-31T10:55:25.879Z,6.07
2022-10-31T10:58:07.074Z,4.93
2022-10-31T11:00:42.129Z,5.00
2022-10-31T11:03:11.356Z,4.93
2022-10-31T11:06:02.070Z,5.13
2022-10-31T11:08:32.322Z,5.67
2022-10-31T11:11:15.776Z,5.20
2022-10-31T11:13:44.634Z,5.60
2022-10-31T11:16:16.064Z,5.33
2022-10-31T11:18:46.865Z,5.50
2022-10-31T11:21:30.543Z,5.73
2022-10-31T11:24:15.638Z,6.03
2022-10-31T11:26:44.816Z,6.23
2022-10-31T11:29:17.979Z,6.27
2022-10-31T11:31:47.906Z,6.10
2022-10-31T11:34:20.854Z,5.97
2022-10-31T11:36:49.163Z,5.83
2022-10-31T11:39:23.788Z,6.03
2022-10-31T11:41:53.984Z,5.80
2022-10-31T11:44:26.618Z,6.23
2022-10-31T11:46:59.707Z,5.90
2022-10-31T11:49:36.592Z,6.33
2022-10-31T11:52:18.555Z,6.03
2022-10-31T11:54:55.327Z,6.10
2022-10-31T11:57:30.755Z,5.40
2022-10-31T12:00:01.479Z,6.43
2022-10-31T12:02:49.302Z,5.73
2022-10-31T12:05:21.919Z,6.73
2022-10-31T12:07:50.339Z,5.80
2022-10-31T12:10:22.047Z,5.77
2022-10-31T12:13:01.098Z,6.10
2022-10-31T12:15:32.797Z,5.63
2022-10-31T12:18:07.343Z,5.50
2022-10-31T12:20:58.132Z,5.40
2022-10-31T12:24:13.289Z,5.73
2022-10-31T12:27:07.549Z,6.37
2022-10-31T12:29:37.518Z,6.30
2022-10-31T12:32:33.811Z,5.30
2022-10-31T12:35:26.603Z,5.30
2022-10-31T12:38:31.285Z,5.23
2022-10-31T12:41:25.615Z,5.33
2022-10-31T12:44:01.550Z,5.23
2022-10-31T12:47:05.655Z,4.63
2022-10-31T12:49:51.099Z,5.43
2022-10-31T12:53:06.443Z,5.07
2022-10-31T12:55:57.429Z,5.07
2022-10-31T12:58:33.781Z,5.10
2022-10-31T13:01:25.448Z,5.00
2022-10-31T13:04:04.549Z,4.93
2022-10-31T13:06:44.721Z,4.33
2022-10-31T13:09:18.769Z,4.70
2022-10-31T13:12:02.039Z,4.40
2022-10-31T13:14:35.875Z,4.50
2022-10-31T13:17:03.429Z,6.20
2022-10-31T13:19:41.005Z,5.40
2022-10-31T13:22:31.619Z,5.63
2022-10-31T13:25:04.114Z,5.33
2022-10-31T13:27:50.039Z,5.47
2022-10-31T13:30:21.880Z,4.17
2022-10-31T13:33:04.769Z,4.43
2022-10-31T13:35:50.718Z,4.67
2022-10-31T13:38:53.862Z,3.80
2022-10-31T13:42:00.624Z,4.07
2022-10-31T13:44:37.385Z,4.87
2022-10-31T13:47:21.746Z,4.37
2022-10-31T13:49:49.147Z,4.30
2022-10-31T13:52:27.819Z,4.27
2022-10-31T13:54:58.406Z,4.10
2022-10-31T13:57:28.993Z,4.30
2022-10-31T14:00:05.788Z,4.60
2022-10-31T14:02:59.824Z,4.40
2022-10-31T14:05:37.131Z,4.40
2022-10-31T14:08:07.123Z,4.73
2022-10-31T14:10:38.745Z,4.07
2022-10-31T14:13:15.197Z,4.23
2022-10-31T14:15:53.495Z,4.60
2022-10-31T14:18:35.491Z,5.03
2022-10-31T14:21:14.459Z,4.70
2022-10-31T14:23:43.650Z,4.43
2022-10-31T14:26:32.099Z,4.43
2022-10-31T14:29:23.957Z,4.83
2022-10-31T14:32:11.661Z,5.27
2022-10-31T14:34:55.804Z,4.73
2022-10-31T14:37:41.744Z,4.70
2022-10-31T14:40:35.378Z,4.50
2022-10-31T14:43:17.328Z,4.93
2022-10-31T14:45:53.285Z,4.93
2022-10-31T14:48:39.343Z,4.50
2022-10-31T14:51:23.035Z,4.73
2022-10-31T14:53:52.018Z,5.23
2022-10-31T14:56:29.893Z,5.17
2022-10-31T14:59:02.190Z,5.37
2022-10-31T15:01:34.246Z,6.77
2022-10-31T15:04:24.762Z,5.73
2022-10-31T15:07:11.840Z,5.37
2022-10-31T15:09:41.820Z,5.33
2022-10-31T15:12:39.426Z,5.57
2022-10-31T15:15:13.842Z,5.30
2022-10-31T15:17:50.031Z,4.83
2022-10-31T15:20:29.258Z,5.27
2022-10-31T15:23:00.714Z,5.73
2022-10-31T15:25:33.223Z,5.03
2022-10-31T15:28:00.957Z,5.60
2022-10-31T15:30:30.366Z,5.50
2022-10-31T15:32:59.034Z,5.87
2022-10-31T15:35:29.829Z,6.30
2022-10-31T15:37:59.220Z,6.13
2022-10-31T15:40:28.934Z,6.80
2022-10-31T15:43:05.555Z,6.70
2022-10-31T15:45:33.400Z,6.93
2022-10-31T15:48:04.155Z,6.30
2022-10-31T15:50:54.317Z,7.57
2022-10-31T15:53:36.564Z,7.60
2022-10-31T15:56:07.970Z,9.30
2022-10-31T15:58:43.750Z,6.97
2022-10-31T16:01:37.717Z,8.60
2022-10-31T16:04:13.362Z,7.90
2022-10-31T16:06:40.860Z,9.50
2022-10-31T16:09:24.660Z,10.83
2022-10-31T16:11:52.627Z,10.10
2022-10-31T16:14:26.791Z,10.23
2022-10-31T16:16:57.641Z,9.13
2022-10-31T16:19:37.230Z,10.13
2022-10-31T16:22:09.353Z,9.70
2022-10-31T16:24:59.757Z,9.90
2022-10-31T16:27:31.325Z,9.10
2022-10-31T16:30:05.363Z,11.87
2022-10-31T16:32:56.632Z,10.43
2022-10-31T16:35:28.827Z,11.17
2022-10-31T16:37:56.289Z,15.93
2022-10-31T16:40:23.559Z,27.97
2022-10-31T16:42:51.124Z,15.77
2022-10-31T16:45:24.006Z,12.43
2022-10-31T16:47:52.123Z,11.57
2022-10-31T16:50:24.113Z,14.17
2022-10-31T16:55:55.488Z,13.63
2022-10-31T16:58:33.588Z,12.90
2022-10-31T17:01:05.780Z,29.47
2022-10-31T17:03:33.461Z,20.43
2022-10-31T17:06:00.862Z,17.17
2022-10-31T17:08:28.178Z,17.33
2022-10-31T17:10:57.314Z,15.33
2022-10-31T17:13:28.512Z,14.93
2022-10-31T17:15:58.519Z,15.40
2022-10-31T17:18:27.873Z,14.90
2022-10-31T17:21:01.427Z,14.63
2022-10-31T17:23:29.270Z,14.40
2022-10-31T17:25:57.219Z,17.77
2022-10-31T17:28:26.599Z,14.03
2022-10-31T17:30:56.098Z,15.07
2022-10-31T17:33:23.490Z,15.97
2022-10-31T17:35:51.670Z,16.10
2022-10-31T17:38:19.307Z,15.10
2022-10-31T17:43:19.031Z,15.73
2022-10-31T17:45:46.408Z,16.60
2022-10-31T17:48:13.828Z,16.50
2022-10-31T17:50:41.427Z,16.27
2022-10-31T17:53:08.877Z,18.67
2022-10-31T17:55:37.407Z,18.70
2022-10-31T17:58:05.511Z,17.77
2022-10-31T18:00:33.898Z,19.13
2022-10-31T18:03:03.964Z,19.23
2022-10-31T18:05:32.150Z,17.23
2022-10-31T18:08:03.743Z,16.47
2022-10-31T18:10:32.023Z,17.00
2022-10-31T18:12:59.743Z,16.53
2022-10-31T18:15:27.402Z,17.67
2022-10-31T18:17:54.738Z,17.07
2022-10-31T18:20:22.133Z,18.10
2022-10-31T18:22:49.521Z,18.07
2022-10-31T18:25:17.018Z,16.13
2022-10-31T18:27:44.323Z,16.47
2022-10-31T18:30:12.119Z,16.07
2022-10-31T18:32:39.416Z,17.03
2022-10-31T18:35:07.058Z,16.37
2022-10-31T18:37:34.474Z,17.13
2022-10-31T18:40:01.799Z,16.70
2022-10-31T18:42:29.184Z,19.97
2022-10-31T18:44:56.573Z,18.30
2022-10-31T18:47:23.949Z,19.77
2022-10-31T18:49:51.342Z,17.33
2022-10-31T18:52:18.683Z,17.13
2022-10-31T18:54:46.184Z,16.67
2022-10-31T18:57:13.515Z,16.27
2022-10-31T18:59:41.008Z,16.53
2022-10-31T19:02:09.475Z,14.80
2022-10-31T19:04:36.936Z,15.83
2022-10-31T19:07:04.287Z,15.07
2022-10-31T19:09:34.388Z,15.40
2022-10-31T19:12:01.796Z,15.83
2022-10-31T19:14:29.167Z,15.53
2022-10-31T19:17:01.230Z,15.33
2022-10-31T19:19:29.890Z,14.63
2022-10-31T19:21:57.865Z,13.77
2022-10-31T19:24:25.285Z,14.77
2022-10-31T19:26:52.584Z,14.47
2022-10-31T19:29:19.945Z,14.73
2022-10-31T19:31:48.246Z,14.63
2022-10-31T19:34:15.594Z,14.87
2022-10-31T19:36:43.353Z,15.67
2022-10-31T19:39:11.116Z,16.33
2022-10-31T19:41:38.562Z,15.93
2022-10-31T19:44:06.541Z,16.00
2022-10-31T19:46:52.764Z,15.23
2022-10-31T19:49:21.128Z,17.63
2022-10-31T19:51:48.566Z,16.57
2022-10-31T19:54:15.982Z,15.63
2022-10-31T19:56:43.401Z,16.57
2022-10-31T19:59:10.791Z,17.43
2022-10-31T20:01:38.266Z,16.10
2022-10-31T20:04:05.873Z,17.20
2022-10-31T20:06:36.580Z,16.17
2022-10-31T20:09:13.466Z,17.13
2022-10-31T20:11:42.470Z,18.77
2022-10-31T20:14:16.735Z,18.50
2022-10-31T20:16:46.583Z,17.33
2022-10-31T20:19:14.371Z,16.77
2022-10-31T20:21:42.461Z,16.63
2022-10-31T20:24:10.829Z,17.33
2022-10-31T20:26:40.790Z,16.80
2022-10-31T20:29:12.231Z,16.43
2022-10-31T20:31:39.974Z,15.67
2022-10-31T20:34:07.358Z,16.23
2022-10-31T20:36:36.688Z,16.00
2022-10-31T20:39:05.046Z,15.23
2022-10-31T20:41:32.347Z,15.23
2022-10-31T20:43:59.815Z,15.80
2022-10-31T20:46:27.715Z,16.47
2022-10-31T20:48:55.430Z,16.10
2022-10-31T20:51:27.459Z,14.83
2022-10-31T20:53:56.950Z,14.10
2022-10-31T20:56:25.965Z,15.83
2022-10-31T20:58:56.065Z,15.27
2022-10-31T21:01:29.062Z,15.90
2022-10-31T21:03:58.252Z,14.63
2022-10-31T21:06:26.815Z,15.83
2022-10-31T21:08:54.652Z,15.50
2022-10-31T21:11:25.081Z,14.93
2022-10-31T21:13:53.199Z,14.67
2022-10-31T21:16:23.636Z,15.07
2022-10-31T21:18:52.185Z,15.07
2022-10-31T21:21:32.213Z,14.67
2022-10-31T21:24:15.053Z,14.27
2022-10-31T21:26:45.880Z,15.43
2022-10-31T21:29:14.830Z,15.77
2022-10-31T21:31:42.953Z,14.97
2022-10-31T21:34:11.133Z,14.70
2022-10-31T21:36:38.917Z,16.03
2022-10-31T21:39:08.152Z,15.63
2022-10-31T21:41:35.495Z,15.63
2022-10-31T21:44:03.012Z,15.83
2022-10-31T21:46:32.028Z,21.93
2022-10-31T21:49:01.826Z,48.90
2022-10-31T21:51:32.781Z,16.17
2022-10-31T21:54:19.144Z,16.07
2022-10-31T21:56:46.883Z,15.27
2022-10-31T21:59:14.264Z,15.97
2022-10-31T22:01:42.031Z,14.13
2022-10-31T22:04:09.859Z,16.03
2022-10-31T22:06:37.659Z,16.13
2022-10-31T22:09:07.393Z,15.63
2022-10-31T22:11:35.290Z,15.80
2022-10-31T22:14:03.404Z,15.97
2022-10-31T22:16:33.685Z,16.03
2022-10-31T22:19:05.317Z,16.20
2022-10-31T22:21:41.055Z,16.13
2022-10-31T22:24:09.337Z,26.00
2022-10-31T22:26:38.033Z,17.00
2022-10-31T22:29:10.511Z,21.37
2022-10-31T22:31:43.345Z,17.87
2022-10-31T22:34:11.723Z,16.53
2022-10-31T22:36:39.701Z,16.57
2022-10-31T22:39:07.959Z,17.47
2022-10-31T22:41:36.654Z,18.10
2022-10-31T22:44:05.573Z,16.60
2022-10-31T22:46:36.256Z,17.90
2022-10-31T22:49:11.154Z,17.20
2022-10-31T22:51:39.766Z,17.20
2022-10-31T22:54:18.013Z,17.63
2022-10-31T22:56:46.523Z,20.23
2022-10-31T22:59:15.914Z,17.67
2022-10-31T23:01:46.970Z,18.57
2022-10-31T23:04:15.861Z,19.03
2022-10-31T23:06:44.420Z,17.60
2022-10-31T23:09:15.200Z,18.73
2022-10-31T23:11:43.273Z,16.97
2022-10-31T23:14:16.457Z,19.23
2022-10-31T23:16:48.503Z,18.00
2022-10-31T23:19:27.710Z,19.27
2022-10-31T23:22:01.037Z,20.90
2022-10-31T23:24:34.316Z,19.80
2022-10-31T23:27:09.562Z,19.70
2022-10-31T23:29:38.284Z,20.37
2022-10-31T23:32:07.451Z,21.90
2022-10-31T23:34:35.296Z,21.70
2022-10-31T23:37:02.695Z,21.87
2022-10-31T23:39:30.427Z,22.63
2022-10-31T23:41:57.969Z,24.67
2022-10-31T23:44:25.378Z,24.03
2022-10-31T23:46:52.904Z,24.47
2022-10-31T23:49:20.409Z,24.40
2022-10-31T23:51:47.879Z,25.17
2022-10-31T23:54:15.513Z,24.70
2022-10-31T23:56:43.034Z,25.37
2022-10-31T23:59:10.486Z,27.07
